Time;durP1;ratioP1;P1;durP2;ratioP2;P2;SDS_P1;SDS_P2;PMS_P1;PMS_P2;Temp;Humidity;BMP_temperature;BMP_pressure;BME280_temperature;BME280_humidity;BME280_pressure;Samples;Min_cycle;Max_cycle;Signal;HPM_P1;HPM_P2
2022/06/19 00:00:50;;;;;;;9.60;3.30;;;;;;;12.37;72.04;101447.88;107651;1246;67952;-81
2022/06/19 00:03:32;;;;;;;7.80;3.30;;;;;;;12.29;71.73;101447.02;107450;1246;73889;-80
2022/06/19 00:06:03;;;;;;;6.00;3.50;;;;;;;12.19;73.17;101442.08;107613;1246;61883;-80
2022/06/19 00:08:32;;;;;;;6.50;3.40;;;;;;;12.20;73.27;101441.88;107495;1246;60508;-79
2022/06/19 00:11:03;;;;;;;5.90;3.40;;;;;;;12.34;72.80;101443.58;107270;1246;74917;-81
2022/06/19 00:13:32;;;;;;;6.60;3.70;;;;;;;12.54;72.22;101444.80;107527;1246;72845;-81
2022/06/19 00:16:01;;;;;;;8.90;3.50;;;;;;;12.51;71.89;101446.06;107370;1246;70283;-80
2022/06/19 00:18:30;;;;;;;6.80;3.40;;;;;;;12.40;71.89;101447.28;107507;1246;73609;-79
2022/06/19 00:20:58;;;;;;;8.60;3.90;;;;;;;12.30;72.53;101450.66;107455;1246;63382;-79
2022/06/19 00:23:28;;;;;;;15.20;3.90;;;;;;;12.20;73.01;101449.06;107456;1246;59361;-80
2022/06/19 00:25:57;;;;;;;9.80;3.70;;;;;;;12.14;73.14;101444.52;107499;1247;73717;-79
2022/06/19 00:28:27;;;;;;;6.90;3.60;;;;;;;12.13;73.47;101447.79;107411;1247;70974;-79
2022/06/19 00:30:56;;;;;;;6.40;3.50;;;;;;;12.09;73.53;101445.11;107422;1246;70584;-79
2022/06/19 00:33:24;;;;;;;7.30;3.70;;;;;;;12.08;73.81;101444.10;107447;1246;73539;-78
2022/06/19 00:35:54;;;;;;;8.50;4.40;;;;;;;12.14;73.78;101443.18;107559;1246;62893;-78
2022/06/19 00:38:23;;;;;;;7.20;3.80;;;;;;;12.25;73.37;101440.16;107561;1247;61422;-77
2022/06/19 00:40:58;;;;;;;8.50;3.90;;;;;;;12.23;73.11;101443.95;107498;1246;73074;-79
2022/06/19 00:43:28;;;;;;;7.70;3.60;;;;;;;12.17;73.25;101440.36;107541;1246;72697;-80
2022/06/19 00:46:36;;;;;;;8.90;3.80;;;;;;;12.09;73.02;101444.92;107593;1246;69280;-79
2022/06/19 00:49:11;;;;;;;9.40;4.00;;;;;;;11.96;72.55;101446.42;107993;1247;73932;-77
2022/06/19 00:51:41;;;;;;;6.40;3.70;;;;;;;11.84;72.07;101444.27;107986;1247;61205;-78
2022/06/19 00:54:14;;;;;;;7.00;4.00;;;;;;;11.72;73.04;101449.44;107743;1246;60525;-80
2022/06/19 00:56:43;;;;;;;8.00;4.10;;;;;;;11.64;74.81;101453.39;107663;1246;75029;-80
2022/06/19 00:59:14;;;;;;;10.20;4.70;;;;;;;11.62;76.10;101456.67;107640;1246;71278;-80
2022/06/19 01:01:44;;;;;;;8.40;4.50;;;;;;;11.60;76.11;101459.06;107484;1247;71433;-79
2022/06/19 01:04:41;;;;;;;7.70;4.10;;;;;;;11.56;74.99;101461.79;107523;1246;73928;-80
2022/06/19 01:07:10;;;;;;;8.20;4.10;;;;;;;11.45;73.72;101463.90;107602;1246;61189;-80
2022/06/19 01:09:39;;;;;;;7.70;3.40;;;;;;;11.34;76.80;101463.73;107495;1247;59721;-82
2022/06/19 01:12:09;;;;;;;7.10;4.20;;;;;;;11.29;76.68;101466.32;107338;1249;72565;-81
2022/06/19 01:14:42;;;;;;;7.30;4.00;;;;;;;11.31;77.55;101465.70;107507;1248;72400;-77
2022/06/19 01:17:16;;;;;;;13.00;4.40;;;;;;;11.31;77.69;101464.98;107614;1246;70962;-79
2022/06/19 01:19:46;;;;;;;9.10;4.30;;;;;;;11.28;76.87;101469.86;107462;1246;73779;-80
2022/06/19 01:22:52;;;;;;;8.20;4.50;;;;;;;11.28;78.01;101470.58;107389;1247;60856;-78
2022/06/19 01:25:31;;;;;;;8.10;4.30;;;;;;;11.27;77.18;101463.63;107562;1246;59097;-80
2022/06/19 01:30:58;;;;;;;9.30;4.80;;;;;;;11.30;77.10;101458.89;107553;1246;71199;-79
2022/06/19 01:33:37;;;;;;;12.00;5.20;;;;;;;11.33;77.29;101463.11;107389;1246;69430;-78
2022/06/19 01:36:08;;;;;;;10.20;5.10;;;;;;;11.27;77.58;101461.89;107576;1246;71677;-79
2022/06/19 01:38:37;;;;;;;7.10;4.90;;;;;;;11.25;78.37;101460.98;107388;1246;63394;-79
2022/06/19 01:41:25;;;;;;;11.40;5.20;;;;;;;11.24;78.02;101462.61;107576;1246;61314;-77
2022/06/19 01:43:54;;;;;;;8.60;5.00;;;;;;;11.24;78.34;101464.75;107582;1246;72177;-81
2022/06/19 01:46:27;;;;;;;9.00;5.20;;;;;;;11.19;77.91;101463.46;107597;1246;69675;-77
2022/06/19 01:48:56;;;;;;;9.70;4.50;;;;;;;11.12;78.04;101462.84;107650;1245;70585;-81
2022/06/19 01:51:25;;;;;;;8.20;4.50;;;;;;;11.04;78.03;101464.39;107413;1247;72306;-79
2022/06/19 01:54:11;;;;;;;8.90;5.10;;;;;;;11.00;78.84;101464.69;107593;1247;60585;-79
2022/06/19 01:56:40;;;;;;;10.80;5.60;;;;;;;10.96;79.54;101468.92;107722;1246;59494;-79
2022/06/19 01:59:10;;;;;;;8.30;5.00;;;;;;;10.96;79.85;101469.82;107532;1246;71717;-76
2022/06/19 02:01:40;;;;;;;11.30;5.70;;;;;;;10.96;80.14;101469.45;107612;1246;72251;-82
2022/06/19 02:04:09;;;;;;;9.10;5.40;;;;;;;11.01;79.99;101475.59;107461;1244;69268;-84
2022/06/19 02:06:49;;;;;;;11.40;4.90;;;;;;;11.04;79.60;101478.30;107313;1246;73966;-83
2022/06/19 02:09:21;;;;;;;11.20;5.70;;;;;;;11.08;79.54;101478.61;107703;1246;62852;-82
2022/06/19 02:11:50;;;;;;;12.70;4.80;;;;;;;11.18;79.05;101478.32;107806;1247;61836;-77
2022/06/19 02:14:20;;;;;;;8.40;5.20;;;;;;;11.36;78.16;101475.96;107670;1246;72263;-80
2022/06/19 02:16:50;;;;;;;9.20;4.90;;;;;;;11.42;77.82;101477.48;107855;1246;70404;-78
2022/06/19 02:19:20;;;;;;;9.30;5.60;;;;;;;11.47;77.46;101473.01;107525;1246;70555;-78
2022/06/19 02:21:55;;;;;;;6.30;4.50;;;;;;;11.47;77.62;101473.55;107443;1247;74774;-78
2022/06/19 02:24:26;;;;;;;14.10;5.60;;;;;;;11.47;77.64;101477.05;107591;1246;63555;-78
2022/06/19 02:26:56;;;;;;;12.30;5.40;;;;;;;11.48;77.70;101478.38;107310;1248;60276;-79
2022/06/19 02:29:25;;;;;;;13.70;5.90;;;;;;;11.47;77.64;101483.69;107387;1247;72533;-77
2022/06/19 02:31:56;;;;;;;10.50;5.40;;;;;;;11.47;77.86;101483.17;107579;1248;70547;-80
2022/06/19 02:34:45;;;;;;;10.10;5.20;;;;;;;11.45;77.78;101485.02;107582;1247;70690;-79
2022/06/19 02:37:27;;;;;;;9.50;5.30;;;;;;;11.41;78.60;101486.98;107656;1246;74310;-78
2022/06/19 02:40:13;;;;;;;10.30;5.20;;;;;;;11.39;78.60;101490.79;107536;1247;63349;-78
2022/06/19 02:42:47;;;;;;;9.00;4.90;;;;;;;11.38;78.48;101491.20;107774;1246;60335;-79
2022/06/19 02:45:31;;;;;;;10.40;5.00;;;;;;;11.36;77.94;101494.09;107691;1246;73124;-79
2022/06/19 02:48:00;;;;;;;9.80;5.10;;;;;;;11.33;78.26;101495.86;107479;1246;72237;-80
2022/06/19 02:50:33;;;;;;;9.60;4.90;;;;;;;11.31;78.66;101494.44;107441;1247;69268;-78
2022/06/19 02:53:02;;;;;;;7.60;4.80;;;;;;;11.32;78.12;101491.42;107520;1246;71989;-79
2022/06/19 02:55:31;;;;;;;12.20;5.50;;;;;;;11.34;78.48;101491.45;107352;1247;61384;-78
2022/06/19 02:58:00;;;;;;;10.60;5.20;;;;;;;11.32;78.59;101492.75;107605;1246;61262;-78
2022/06/19 03:00:30;;;;;;;9.00;5.40;;;;;;;11.30;79.22;101489.94;107322;1247;74858;-83
2022/06/19 03:03:05;;;;;;;11.20;5.50;;;;;;;11.33;79.07;101493.97;107579;1246;71981;-81
2022/06/19 03:05:35;;;;;;;9.10;5.50;;;;;;;11.37;79.57;101490.73;107532;1246;68858;-78
2022/06/19 03:08:04;;;;;;;9.90;5.60;;;;;;;11.43;79.50;101490.34;107342;1248;73928;-79
2022/06/19 03:10:33;;;;;;;11.20;6.00;;;;;;;11.51;79.26;101492.86;107550;1246;64005;-79
2022/06/19 03:13:02;;;;;;;10.70;5.90;;;;;;;11.60;79.03;101491.18;107524;1246;60888;-80
2022/06/19 03:15:31;;;;;;;9.20;5.70;;;;;;;11.71;78.51;101493.64;107572;1246;75114;-79
2022/06/19 03:18:00;;;;;;;9.80;5.20;;;;;;;11.82;78.05;101499.19;107414;1247;70861;-80
2022/06/19 03:20:29;;;;;;;8.20;5.50;;;;;;;12.00;77.28;101500.81;107343;1248;66875;-79
2022/06/19 03:22:58;;;;;;;9.20;5.40;;;;;;;12.17;76.60;101503.39;107316;1249;72386;-80
2022/06/19 03:25:27;;;;;;;10.70;5.80;;;;;;;12.34;75.99;101508.67;107556;1246;60611;-79
2022/06/19 03:27:57;;;;;;;10.10;5.30;;;;;;;12.55;74.99;101512.20;107559;1247;59741;-80
2022/06/19 03:30:27;;;;;;;10.50;5.30;;;;;;;12.69;74.19;101509.47;107663;1246;74444;-81
2022/06/19 03:32:56;;;;;;;9.30;5.40;;;;;;;12.83;73.74;101511.27;107718;1247;70986;-80
2022/06/19 03:35:25;;;;;;;13.00;6.20;;;;;;;12.97;73.25;101507.90;107726;1246;67236;-80
2022/06/19 03:37:54;;;;;;;10.70;5.70;;;;;;;13.04;72.88;101506.67;107637;1246;73842;-81
2022/06/19 03:40:22;;;;;;;13.00;5.80;;;;;;;13.21;72.17;101505.70;107421;1246;62767;-80
2022/06/19 03:42:51;;;;;;;11.40;5.50;;;;;;;13.39;71.50;101504.95;107498;1248;60779;-80
2022/06/19 03:45:20;;;;;;;8.50;5.60;;;;;;;13.55;71.04;101509.23;107788;1246;72481;-80
2022/06/19 03:47:49;;;;;;;12.50;7.30;;;;;;;13.67;71.08;101511.11;107896;1246;71489;-83
2022/06/19 03:50:18;;;;;;;8.10;5.70;;;;;;;13.80;70.32;101514.44;107691;1247;69701;-79
2022/06/19 03:52:47;;;;;;;12.70;6.20;;;;;;;13.87;70.56;101513.71;107792;1246;71573;-80
2022/06/19 03:55:16;;;;;;;11.10;6.50;;;;;;;13.89;70.64;101512.17;107746;1246;61987;-80
2022/06/19 03:57:45;;;;;;;9.90;5.90;;;;;;;13.91;70.75;101514.79;107638;1246;60728;-81
2022/06/19 04:00:18;;;;;;;14.20;9.80;;;;;;;13.94;70.53;101513.35;107657;1249;74879;-79
2022/06/19 04:02:46;;;;;;;;;;;;;;;13.97;70.63;101511.73;107888;1246;73030;-80
2022/06/19 04:05:15;;;;;;;12.00;5.70;;;;;;;14.03;70.57;101513.92;108153;1246;69436;-80
2022/06/19 04:07:47;;;;;;;9.20;5.30;;;;;;;14.11;70.28;101512.48;108067;1248;71168;-78
2022/06/19 04:10:19;;;;;;;11.50;5.90;;;;;;;14.19;70.12;101506.79;107823;1246;61383;-80
2022/06/19 04:12:54;;;;;;;10.70;5.60;;;;;;;14.31;70.01;101510.10;108033;1246;59095;-79
2022/06/19 04:15:23;;;;;;;10.50;6.20;;;;;;;14.41;69.66;101510.70;107645;1247;76180;-82
2022/06/19 04:17:51;;;;;;;11.50;5.60;;;;;;;14.47;69.73;101509.88;107781;1247;71897;-79
2022/06/19 04:20:20;;;;;;;8.00;5.40;;;;;;;14.57;69.28;101511.63;107566;1248;69273;-79
2022/06/19 04:22:49;;;;;;;9.30;5.80;;;;;;;14.65;69.26;101507.31;107533;1248;72201;-82
2022/06/19 04:25:18;;;;;;;8.10;5.00;;;;;;;14.75;69.10;101510.02;107676;1246;59280;-81
2022/06/19 04:27:47;;;;;;;11.10;6.30;;;;;;;14.86;68.83;101511.30;107721;1246;59921;-82
2022/06/19 04:30:22;;;;;;;8.70;5.20;;;;;;;14.98;68.27;101511.23;107497;1248;75192;-82
2022/06/19 04:32:50;;;;;;;11.20;6.80;;;;;;;15.11;68.06;101510.39;107665;1246;71996;-80
2022/06/19 04:35:19;;;;;;;9.30;5.70;;;;;;;15.25;67.74;101507.08;107633;1247;69283;-80
2022/06/19 04:37:48;;;;;;;12.10;5.90;;;;;;;15.36;67.44;101506.64;107716;1246;73021;-81
2022/06/19 04:40:17;;;;;;;10.20;5.80;;;;;;;15.49;67.04;101508.98;107698;1246;63438;-81
2022/06/19 04:42:47;;;;;;;9.90;5.30;;;;;;;15.59;66.69;101507.83;107763;1246;60935;-81
2022/06/19 04:45:16;;;;;;;7.00;5.30;;;;;;;15.70;66.64;101505.77;107614;1246;75371;-81
2022/06/19 04:47:44;;;;;;;9.60;5.20;;;;;;;15.83;66.25;101508.35;107575;1247;70700;-83
2022/06/19 04:50:13;;;;;;;9.20;5.00;;;;;;;15.94;65.80;101505.02;107732;1246;67937;-80
2022/06/19 04:52:42;;;;;;;9.10;5.80;;;;;;;16.05;65.29;101503.33;107690;1247;73882;-80
2022/06/19 04:55:13;;;;;;;11.50;5.50;;;;;;;16.16;65.08;101500.48;107744;1246;60701;-81
2022/06/19 04:57:42;;;;;;;10.60;6.20;;;;;;;16.27;64.87;101497.35;107685;1249;61741;-81
2022/06/19 05:00:15;;;;;;;10.00;5.60;;;;;;;16.39;64.52;101497.34;107810;1246;73947;-80
2022/06/19 05:02:49;;;;;;;6.60;4.90;;;;;;;16.51;64.12;101498.25;107726;1247;70703;-81
2022/06/19 05:05:20;;;;;;;15.50;5.60;;;;;;;16.64;63.53;101497.84;107816;1246;69732;-84
2022/06/19 05:07:50;;;;;;;7.50;5.00;;;;;;;16.75;63.18;101497.98;107971;1246;72465;-84
2022/06/19 05:10:18;;;;;;;6.60;4.40;;;;;;;16.89;62.49;101502.41;107605;1247;59968;-83
2022/06/19 05:12:47;;;;;;;8.30;4.50;;;;;;;17.02;62.25;101499.54;107587;1248;59071;-80
2022/06/19 05:15:16;;;;;;;10.60;4.60;;;;;;;17.19;61.87;101501.73;107412;1248;72494;-79
2022/06/19 05:17:45;;;;;;;9.10;4.40;;;;;;;17.35;60.55;101498.80;107559;1248;69693;-79
2022/06/19 05:20:14;;;;;;;6.90;3.90;;;;;;;17.49;60.27;101495.02;107817;1246;69985;-80
2022/06/19 05:22:44;;;;;;;6.80;3.70;;;;;;;17.64;59.32;101495.63;107397;1248;63696;-80
2022/06/19 05:25:13;;;;;;;6.70;3.80;;;;;;;17.80;58.20;101498.63;107676;1247;60581;-80
2022/06/19 05:27:42;;;;;;;6.40;4.20;;;;;;;17.89;57.65;101497.11;107848;1247;59144;-78
2022/06/19 05:30:13;;;;;;;5.60;3.60;;;;;;;17.96;58.40;101497.89;107794;1246;74353;-79
2022/06/19 05:32:42;;;;;;;5.20;3.80;;;;;;;18.10;57.34;101493.07;107603;1247;70722;-80
2022/06/19 05:35:11;;;;;;;9.40;4.00;;;;;;;18.24;56.94;101491.88;107715;1245;69787;-82
2022/06/19 05:37:39;;;;;;;6.80;3.60;;;;;;;18.38;56.78;101492.80;107567;1248;73782;-81
2022/06/19 05:40:10;;;;;;;5.10;3.50;;;;;;;18.54;56.63;101494.66;108005;1247;59545;-79
2022/06/19 05:42:38;;;;;;;5.50;3.60;;;;;;;18.67;55.49;101489.84;107878;1247;59639;-82
2022/06/19 05:45:08;;;;;;;7.00;4.00;;;;;;;18.80;55.09;101487.24;107901;1247;64918;-79
2022/06/19 05:47:37;;;;;;;6.60;4.50;;;;;;;18.92;54.31;101479.56;107859;1247;73175;-83
2022/06/19 05:50:07;;;;;;;7.50;3.20;;;;;;;19.05;53.93;101478.33;107937;1247;69360;-78
2022/06/19 05:52:36;;;;;;;8.80;3.70;;;;;;;19.20;53.27;101478.27;107814;1247;62406;-80
2022/06/19 05:55:06;;;;;;;4.80;3.50;;;;;;;19.30;53.60;101479.27;107918;1246;59599;-79
2022/06/19 05:57:35;;;;;;;5.40;3.20;;;;;;;19.43;53.27;101476.41;107762;1246;61094;-83
2022/06/19 06:00:08;;;;;;;5.60;3.20;;;;;;;19.58;52.12;101471.40;107493;1247;64633;-82
2022/06/19 06:02:41;;;;;;;5.40;3.20;;;;;;;19.71;52.15;101469.24;107814;1246;61810;-82
2022/06/19 06:05:10;;;;;;;7.30;3.30;;;;;;;19.85;51.70;101469.57;107625;1247;68117;-81
2022/06/19 06:07:39;;;;;;;4.40;2.90;;;;;;;19.99;51.08;101476.31;107569;1247;62974;-82
2022/06/19 06:10:11;;;;;;;6.50;3.30;;;;;;;20.16;50.40;101475.56;107622;1245;59597;-81
2022/06/19 06:12:39;;;;;;;5.00;3.00;;;;;;;20.28;49.91;101474.63;107639;1247;58299;-81
2022/06/19 06:15:10;;;;;;;4.70;3.00;;;;;;;20.42;49.77;101474.60;107604;1246;63801;-82
2022/06/19 06:17:38;;;;;;;4.80;3.50;;;;;;;20.55;50.36;101471.92;107394;1249;71804;-80
2022/06/19 06:20:08;;;;;;;5.40;3.20;;;;;;;20.65;50.09;101471.77;107466;1247;60567;-80
2022/06/19 06:22:36;;;;;;;4.60;3.40;;;;;;;20.78;49.10;101466.89;107417;1248;72877;-82
2022/06/19 06:25:06;;;;;;;4.50;3.10;;;;;;;20.92;48.88;101469.36;107495;1247;59592;-80
2022/06/19 06:27:35;;;;;;;4.80;3.10;;;;;;;21.06;49.05;101468.59;107453;1247;57853;-81
2022/06/19 06:30:05;;;;;;;6.60;2.60;;;;;;;21.24;48.47;101468.80;107508;1246;73736;-81
2022/06/19 06:32:34;;;;;;;5.20;2.90;;;;;;;21.38;48.14;101465.35;107411;1247;61278;-81
2022/06/19 06:35:04;;;;;;;5.30;3.00;;;;;;;21.53;47.24;101466.84;107285;1249;70276;-81
2022/06/19 06:37:32;;;;;;;5.40;3.00;;;;;;;21.65;47.35;101461.76;107365;1248;74347;-82
2022/06/19 06:40:02;;;;;;;4.90;3.10;;;;;;;21.76;47.20;101458.08;107362;1249;59092;-78
2022/06/19 06:42:31;;;;;;;5.10;3.00;;;;;;;21.88;46.16;101459.41;107425;1249;59614;-81
2022/06/19 06:45:01;;;;;;;7.40;2.80;;;;;;;21.98;45.65;101455.91;107540;1246;63208;-81
2022/06/19 06:47:30;;;;;;;5.30;2.90;;;;;;;22.12;45.00;101454.73;107536;1249;62693;-82
2022/06/19 06:49:59;;;;;;;7.10;3.60;;;;;;;22.29;43.44;101455.05;107658;1247;69494;-79
2022/06/19 06:52:27;;;;;;;4.00;2.80;;;;;;;22.34;42.38;101456.00;107604;1247;73642;-81
2022/06/19 06:54:56;;;;;;;5.30;2.80;;;;;;;22.50;42.84;101457.45;107560;1248;62074;-82
2022/06/19 06:57:25;;;;;;;5.10;2.70;;;;;;;22.62;42.68;101452.77;107531;1247;57859;-81
2022/06/19 06:59:54;;;;;;;4.60;2.80;;;;;;;22.74;42.66;101446.05;107584;1246;74458;-83
2022/06/19 07:02:22;;;;;;;3.90;2.20;;;;;;;22.89;42.02;101445.24;107528;1248;72690;-83
2022/06/19 07:04:51;;;;;;;4.40;2.40;;;;;;;23.02;40.62;101443.84;107631;1248;60161;-79
2022/06/19 07:07:20;;;;;;;10.60;3.00;;;;;;;23.15;41.29;101443.19;107495;1248;63465;-83
2022/06/19 07:09:50;;;;;;;5.80;2.20;;;;;;;23.30;42.03;101436.66;107613;1248;59535;-83
2022/06/19 07:12:19;;;;;;;6.40;1.90;;;;;;;23.49;39.90;101431.93;107619;1249;60806;-82
2022/06/19 07:14:48;;;;;;;3.80;1.70;;;;;;;23.63;37.96;101429.29;107631;1248;64405;-81
2022/06/19 07:17:16;;;;;;;2.70;1.80;;;;;;;23.76;36.97;101432.60;107812;1247;72225;-82
2022/06/19 07:19:46;;;;;;;5.30;2.40;;;;;;;23.81;37.12;101431.65;107959;1246;60703;-79
2022/06/19 07:22:17;;;;;;;6.20;2.20;;;;;;;23.95;36.43;101434.61;108272;1247;64257;-79
2022/06/19 07:24:46;;;;;;;3.20;1.90;;;;;;;24.07;35.84;101434.77;108127;1245;59667;-81
2022/06/19 07:27:15;;;;;;;3.10;1.80;;;;;;;24.11;35.28;101431.71;108082;1246;59589;-82
2022/06/19 07:29:46;;;;;;;4.10;2.10;;;;;;;24.15;35.77;101426.31;107851;1247;62918;-83
2022/06/19 07:32:15;;;;;;;2.70;2.10;;;;;;;24.31;36.60;101424.45;107823;1247;71529;-82
2022/06/19 07:34:43;;;;;;;3.90;1.80;;;;;;;24.38;35.14;101427.05;107899;1247;70187;-81
2022/06/19 07:37:13;;;;;;;2.90;1.50;;;;;;;24.38;34.91;101426.86;107701;1247;63009;-79
2022/06/19 07:39:43;;;;;;;3.30;1.70;;;;;;;24.38;35.22;101424.16;107725;1248;59549;-82
2022/06/19 07:42:12;;;;;;;6.30;2.60;;;;;;;24.40;35.30;101420.53;107651;1248;58989;-84
2022/06/19 07:44:41;;;;;;;2.80;1.70;;;;;;;24.49;35.22;101415.77;107786;1247;74078;-85
2022/06/19 07:50:09;;;;;;;3.10;1.70;;;;;;;24.61;33.36;101411.61;107663;1248;71187;-82
2022/06/19 07:52:40;;;;;;;2.90;1.50;;;;;;;24.72;33.36;101407.63;107888;1248;73808;-83
2022/06/19 07:55:12;;;;;;;3.80;2.00;;;;;;;24.82;33.35;101405.50;108399;1247;60922;-82
2022/06/19 07:57:41;;;;;;;3.90;2.20;;;;;;;24.88;33.78;101407.59;108072;1247;61666;-83
2022/06/19 08:00:18;;;;;;;3.00;1.70;;;;;;;25.00;33.42;101407.86;107949;1247;75160;-83
2022/06/19 08:02:50;;;;;;;4.00;1.90;;;;;;;25.08;32.74;101403.89;108020;1247;61799;-85
2022/06/19 08:05:26;;;;;;;3.60;1.90;;;;;;;25.08;32.48;101401.50;107799;1248;60060;-83
2022/06/19 08:07:57;;;;;;;5.70;2.20;;;;;;;25.21;33.49;101404.27;108050;1247;73502;-82
2022/06/19 08:10:42;;;;;;;2.80;1.60;;;;;;;25.39;32.94;101399.92;107843;1247;61125;-81
2022/06/19 08:13:19;;;;;;;3.10;2.00;;;;;;;25.63;32.57;101400.55;107776;1247;60705;-82
2022/06/19 08:15:54;;;;;;;3.60;1.70;;;;;;;25.78;31.61;101400.88;107611;1247;64129;-82
2022/06/19 08:18:25;;;;;;;4.00;1.70;;;;;;;25.59;30.74;101392.40;107788;1247;70475;-80
2022/06/19 08:20:54;;;;;;;4.40;2.00;;;;;;;25.54;31.02;101391.33;107588;1247;70570;-80
2022/06/19 08:23:22;;;;;;;2.70;1.60;;;;;;;25.65;31.11;101390.84;107709;1247;73495;-82
2022/06/19 08:25:52;;;;;;;10.10;1.80;;;;;;;25.79;31.50;101391.35;108016;1247;59537;-78
2022/06/19 08:28:31;;;;;;;3.90;1.60;;;;;;;25.98;31.31;101388.85;107692;1247;58262;-79
2022/06/19 08:31:00;;;;;;;2.30;1.60;;;;;;;26.05;30.54;101385.64;107548;1251;63314;-78
2022/06/19 08:33:29;;;;;;;3.10;1.50;;;;;;;25.95;30.31;101383.93;107841;1246;60737;-80
2022/06/19 08:36:06;;;;;;;4.40;1.60;;;;;;;26.18;30.83;101381.60;107810;1247;60034;-81
2022/06/19 08:38:42;;;;;;;2.00;1.50;;;;;;;26.18;29.83;101377.23;107736;1248;73942;-79
2022/06/19 08:41:39;;;;;;;2.00;1.50;;;;;;;26.30;30.37;101371.55;107596;1249;59637;-82
2022/06/19 08:44:19;;;;;;;3.10;1.50;;;;;;;26.45;30.15;101374.36;107879;1247;61239;-81
2022/06/19 08:47:15;;;;;;;2.00;1.40;;;;;;;26.62;29.69;101371.95;107829;1247;64168;-81
2022/06/19 08:50:17;;;;;;;5.20;1.50;;;;;;;26.45;29.98;101372.04;108132;1247;60893;-84
2022/06/19 08:53:14;;;;;;;1.80;1.40;;;;;;;26.60;29.69;101372.61;107993;1247;60357;-82
2022/06/19 08:55:57;;;;;;;2.00;1.40;;;;;;;26.76;29.12;101369.79;107760;1247;72247;-81
2022/06/19 08:58:34;;;;;;;4.80;1.50;;;;;;;26.68;29.31;101367.45;107826;1247;59630;-80
2022/06/19 09:01:37;;;;;;;2.60;1.50;;;;;;;26.66;29.00;101365.25;107788;1247;59436;-79
2022/06/19 09:07:52;;;;;;;2.40;1.60;;;;;;;26.75;28.63;101358.85;107786;1247;62470;-82
2022/06/19 09:10:55;;;;;;;3.50;1.50;;;;;;;26.72;28.99;101360.95;107716;1245;70622;-81
2022/06/19 09:13:48;;;;;;;;;;;;;;;26.75;28.88;101353.94;107622;1246;74303;-82
2022/06/19 09:16:40;;;;;;;2.40;1.90;;;;;;;26.79;28.76;101354.58;107501;1249;59651;-82
2022/06/19 09:19:25;;;;;;;3.50;1.40;;;;;;;26.92;28.40;101353.04;107394;1246;59572;-84
2022/06/19 09:22:43;;;;;;;4.20;1.80;;;;;;;26.83;28.87;101344.61;107581;1247;64670;-77
2022/06/19 09:25:53;;;;;;;4.80;1.80;;;;;;;27.01;28.62;101344.70;107937;1246;61079;-82
2022/06/19 09:28:46;;;;;;;2.70;1.70;;;;;;;27.32;28.21;101340.13;107467;1253;59716;-81
2022/06/19 09:31:32;;;;;;;3.80;1.40;;;;;;;27.56;27.83;101339.86;107687;1247;73992;-82
2022/06/19 09:34:26;;;;;;;3.10;1.60;;;;;;;27.81;27.84;101334.16;107806;1246;59648;-82
2022/06/19 09:37:11;;;;;;;2.70;1.40;;;;;;;27.76;27.68;101330.16;107730;1246;58920;-81
2022/06/19 09:39:54;;;;;;;3.40;1.60;;;;;;;27.78;27.43;101331.48;107747;1247;63805;-83
2022/06/19 09:42:36;;;;;;;4.90;1.80;;;;;;;27.82;27.17;101330.04;107673;1247;62636;-83
2022/06/19 09:46:03;;;;;;;2.60;1.50;;;;;;;27.81;27.24;101331.53;107549;1247;60489;-82
2022/06/19 09:49:22;;;;;;;2.50;1.60;;;;;;;27.87;27.02;101326.20;107379;1247;62594;-85
2022/06/19 09:52:42;;;;;;;2.10;1.60;;;;;;;28.11;26.95;101325.51;107062;1252;60512;-83
2022/06/19 09:55:27;;;;;;;2.40;1.60;;;;;;;28.27;26.34;101325.83;107860;1247;59647;-85
2022/06/19 09:58:32;;;;;;;4.20;1.70;;;;;;;28.11;26.50;101325.38;107626;1247;63777;-82
2022/06/19 10:01:03;;;;;;;3.30;1.50;;;;;;;28.36;26.28;101323.20;107581;1247;62046;-84
2022/06/19 10:03:44;;;;;;;2.70;1.40;;;;;;;28.33;26.29;101324.61;107830;1246;60239;-85
2022/06/19 10:06:33;;;;;;;2.00;1.50;;;;;;;28.27;26.62;101322.77;107903;1247;74012;-83
2022/06/19 10:09:22;;;;;;;3.30;1.80;;;;;;;28.45;26.30;101319.43;107618;1247;59625;-83
2022/06/19 10:11:56;;;;;;;3.50;2.30;;;;;;;28.43;26.01;101309.33;107825;1246;59495;-82
2022/06/19 10:14:35;;;;;;;3.20;1.70;;;;;;;28.50;25.72;101305.04;107626;1247;72628;-83
2022/06/19 10:17:28;;;;;;;3.70;1.50;;;;;;;28.49;25.54;101304.25;107648;1247;70278;-83
2022/06/19 10:20:20;;;;;;;3.60;1.70;;;;;;;28.56;25.82;101303.14;107701;1247;60035;-84
2022/06/19 10:23:14;;;;;;;2.40;1.10;;;;;;;28.90;25.81;101302.16;107629;1247;62515;-83
2022/06/19 10:26:16;;;;;;;2.60;1.70;;;;;;;28.58;25.08;101300.77;107594;1247;60118;-84
2022/06/19 10:29:13;;;;;;;4.50;2.40;;;;;;;28.77;25.30;101300.41;107596;1247;59698;-83
2022/06/19 10:32:01;;;;;;;2.00;1.50;;;;;;;29.36;25.18;101301.56;107621;1247;74297;-83
2022/06/19 10:34:54;;;;;;;1.80;1.10;;;;;;;29.69;24.22;101301.77;107659;1249;62040;-86
2022/06/19 10:37:44;;;;;;;;;;;;;;;29.28;24.41;101295.34;107989;1247;69800;-81
2022/06/19 10:40:37;;;;;;;2.00;1.20;;;;;;;29.38;24.27;101294.95;108885;1247;73667;-83
2022/06/19 10:43:33;;;;;;;2.10;1.40;;;;;;;28.93;24.56;101290.90;108779;1247;61372;-84
2022/06/19 10:46:11;;;;;;;3.40;1.40;;;;;;;29.52;24.14;101291.08;108384;1247;60783;-84
2022/06/19 10:49:08;;;;;;;2.90;1.40;;;;;;;30.04;23.72;101285.34;107981;1247;63427;-82
2022/06/19 10:52:03;;;;;;;2.60;1.40;;;;;;;30.53;23.75;101279.34;107912;1247;60946;-83
2022/06/19 10:55:10;;;;;;;2.30;1.10;;;;;;;30.33;23.36;101280.33;107940;1247;70256;-84
2022/06/19 10:58:09;;;;;;;1.60;1.10;;;;;;;30.80;23.21;101274.08;107784;1246;73624;-81
2022/06/19 11:00:39;;;;;;;3.80;1.30;;;;;;;30.88;22.96;101279.27;107930;1246;61591;-80
2022/06/19 11:04:07;;;;;;;3.60;1.20;;;;;;;30.92;23.27;101274.92;107668;1247;61875;-82
2022/06/19 11:06:45;;;;;;;2.80;1.50;;;;;;;31.39;22.55;101277.73;107392;1246;74767;-83
2022/06/19 11:09:22;;;;;;;2.10;1.30;;;;;;;31.44;22.28;101275.66;107759;1247;71971;-84
2022/06/19 11:11:55;;;;;;;3.20;1.50;;;;;;;31.30;22.43;101273.41;107348;1248;59530;-83
2022/06/19 11:14:47;;;;;;;2.40;1.30;;;;;;;31.63;22.07;101267.64;107781;1247;63282;-82
2022/06/19 11:17:36;;;;;;;3.10;1.30;;;;;;;31.95;21.66;101266.61;108256;1247;57885;-82
2022/06/19 11:20:32;;;;;;;4.20;1.50;;;;;;;32.36;20.85;101265.35;107952;1247;61291;-81
2022/06/19 11:23:24;;;;;;;2.20;1.10;;;;;;;32.20;20.96;101268.14;107804;1247;74450;-82
2022/06/19 11:26:20;;;;;;;4.90;1.30;;;;;;;32.46;20.88;101266.94;107691;1247;61543;-83
2022/06/19 11:29:04;;;;;;;2.30;1.20;;;;;;;32.69;20.46;101263.13;107173;1247;643251;-82
2022/06/19 11:31:42;;;;;;;1.90;1.10;;;;;;;33.05;20.63;101261.54;107744;1247;73939;-83
2022/06/19 11:37:37;;;;;;;2.30;1.30;;;;;;;33.32;20.03;101256.50;107919;1247;60234;-85
2022/06/19 11:40:05;;;;;;;3.70;1.10;;;;;;;33.36;19.52;101255.58;107752;1247;74106;-83
2022/06/19 11:42:59;;;;;;;2.50;1.70;;;;;;;32.68;19.93;101253.06;107928;1247;61861;-84
2022/06/19 11:45:37;;;;;;;4.00;1.40;;;;;;;33.20;19.44;101247.55;107869;1247;60049;-81
2022/06/19 11:48:13;;;;;;;2.90;1.40;;;;;;;33.27;19.21;101246.77;107800;1247;63346;-83
2022/06/19 11:50:52;;;;;;;2.10;1.10;;;;;;;33.26;19.21;101251.48;107466;1247;59125;-85
2022/06/19 11:53:40;;;;;;;3.50;1.40;;;;;;;33.50;18.87;101242.52;107721;1246;59466;-84
2022/06/19 11:56:15;;;;;;;2.50;1.20;;;;;;;33.32;19.02;101245.48;107747;1247;74997;-83
2022/06/19 11:59:17;;;;;;;5.20;1.40;;;;;;;33.19;18.85;101243.28;107770;1247;62245;-83
2022/06/19 12:01:46;;;;;;;2.50;1.30;;;;;;;33.43;18.66;101244.69;107614;1247;70535;-83
2022/06/19 12:04:32;;;;;;;2.40;1.10;;;;;;;33.75;18.23;101242.61;107778;1247;74070;-84
2022/06/19 12:07:16;;;;;;;3.40;1.20;;;;;;;35.20;17.23;101236.71;107805;1246;62681;-84
2022/06/19 12:09:54;;;;;;;1.90;1.10;;;;;;;35.06;17.54;101233.17;107798;1247;58241;-83